Time;durP1;ratioP1;P1;durP2;ratioP2;P2;SDS_P1;SDS_P2;PMS_P1;PMS_P2;Temp;Humidity;BMP_temperature;BMP_pressure;BME280_temperature;BME280_humidity;BME280_pressure;Samples;Min_cycle;Max_cycle;Signal;HPM_P1;HPM_P2
2022/01/08 00:01:58;;;;;;;5.20;2.72;;;5.90;58.80;;;4.21;64.38;100683.28;8375776;28;20103;-83
2022/01/08 00:06:20;;;;;;;4.95;3.33;;;6.00;58.80;;;4.27;64.35;100693.44;8403159;28;20031;-84
2022/01/08 00:10:42;;;;;;;2.67;2.45;;;5.90;58.80;;;4.17;64.04;100664.44;8394775;28;20127;-83
2022/01/08 00:15:06;;;;;;;2.45;2.25;;;5.80;58.80;;;4.08;64.28;100643.19;8371982;28;20047;-83
2022/01/08 00:19:28;;;;;;;2.75;2.55;;;6.00;58.90;;;4.13;64.37;100652.50;8373519;28;20032;-83
2022/01/08 00:23:50;;;;;;;3.00;2.80;;;6.00;58.90;;;4.22;64.46;100666.91;8382282;28;20491;-84
2022/01/08 00:28:11;;;;;;;3.17;2.65;;;5.90;58.90;;;4.15;64.50;100648.13;8380658;28;20040;-84
2022/01/08 00:32:34;;;;;;;2.80;2.50;;;6.00;58.90;;;4.20;64.51;100663.50;8395108;28;20050;-83
2022/01/08 00:36:56;;;;;;;2.78;2.58;;;6.00;59.00;;;4.30;64.28;100683.00;8375217;28;20500;-83
2022/01/08 00:41:18;;;;;;;3.00;2.55;;;6.00;59.00;;;4.20;64.08;100658.34;8382112;28;20115;-83
2022/01/08 00:45:40;;;;;;;2.65;2.42;;;5.90;59.00;;;4.14;64.10;100650.78;8401409;28;20147;-83
2022/01/08 00:50:04;;;;;;;3.85;2.70;;;6.00;59.00;;;4.29;64.44;100678.72;8386879;28;20120;-82
2022/01/08 00:54:26;;;;;;;2.75;2.50;;;6.00;59.00;;;4.26;64.18;100663.31;8396340;28;20042;-84
2022/01/08 00:58:47;;;;;;;4.05;2.67;;;6.00;59.00;;;4.02;64.22;100635.63;8407765;28;20042;-84
2022/01/08 01:03:09;;;;;;;2.28;2.10;;;5.90;59.00;;;4.08;64.26;100628.53;8373597;28;20036;-84
2022/01/08 01:07:31;;;;;;;2.13;2.03;;;5.90;59.00;;;4.08;64.44;100643.19;8379667;28;20164;-84
2022/01/08 01:11:57;;;;;;;4.10;3.20;;;5.70;58.90;;;4.18;64.28;100654.94;8398103;28;20042;-84
2022/01/08 01:16:19;;;;;;;3.10;2.65;;;5.90;59.00;;;4.09;64.53;100635.41;8409288;28;20382;-84
2022/01/08 01:20:41;;;;;;;2.85;2.60;;;5.90;59.10;;;4.16;63.94;100642.09;8390993;28;20041;-84
2022/01/08 01:25:06;;;;;;;3.10;2.65;;;5.90;59.10;;;4.15;64.28;100644.69;8385295;28;20119;-84
2022/01/08 01:48:08;;;;;;;2.20;2.08;;;5.90;59.20;;;4.15;64.59;100618.84;8382956;28;20400;-84
2022/01/08 01:52:30;;;;;;;2.78;2.58;;;5.80;59.20;;;4.15;64.46;100622.28;8388468;28;20128;-84
2022/01/08 01:56:52;;;;;;;3.80;3.42;;;5.80;59.20;;;4.16;64.52;100621.41;8377400;28;20055;-84
2022/01/08 02:01:14;;;;;;;4.40;2.83;;;5.80;59.30;;;4.10;64.33;100612.97;8387396;28;20114;-84
2022/01/08 02:05:36;;;;;;;2.47;2.28;;;5.80;59.20;;;4.17;64.53;100622.25;8379098;28;20107;-84
2022/01/08 02:09:58;;;;;;;3.40;3.10;;;5.90;59.30;;;4.13;64.35;100616.34;8386262;28;20810;-84
2022/01/08 02:14:19;;;;;;;3.80;3.42;;;5.90;59.30;;;4.17;64.64;100614.50;8390104;28;20115;-84
2022/01/08 02:18:42;;;;;;;3.20;2.90;;;5.80;59.30;;;4.18;64.47;100618.75;8390666;28;20032;-85
2022/01/08 02:23:04;;;;;;;4.65;3.50;;;5.90;59.30;;;4.17;64.63;100614.50;8377254;28;20611;-84
2022/01/08 02:27:25;;;;;;;3.42;2.83;;;5.90;59.30;;;4.07;64.40;100595.81;8400062;28;20032;-84
2022/01/08 02:32:11;;;;;;;3.28;3.00;;;5.80;59.30;;;4.09;64.34;100590.63;8385293;28;20112;-84
2022/01/08 02:36:34;;;;;;;3.35;2.88;;;5.80;59.40;;;4.06;64.73;100575.22;8381677;28;20046;-84
2022/01/08 02:41:00;;;;;;;2.92;2.70;;;5.80;59.30;;;4.04;64.65;100570.09;8399265;28;20122;-84
2022/01/08 02:45:21;;;;;;;;;;;5.70;59.30;;;4.13;64.66;100576.69;8388580;28;20079;-84
2022/01/08 02:49:44;;;;;;;2.67;2.47;;;5.90;59.40;;;4.06;64.80;100570.91;8383697;28;19918;-84
2022/01/08 02:54:11;;;;;;;2.53;2.33;;;5.90;59.20;;;4.20;64.42;100591.13;8384652;28;20476;-84
2022/01/08 02:58:33;;;;;;;3.67;2.58;;;5.90;59.30;;;4.13;64.70;100579.28;8387053;28;20408;-84
2022/01/08 03:02:54;;;;;;;3.40;3.05;;;5.90;59.40;;;4.08;64.60;100573.41;8362780;28;20115;-84
2022/01/08 03:07:16;;;;;;;3.22;2.92;;;5.90;59.40;;;4.15;64.64;100577.50;8384629;28;20036;-84
2022/01/08 03:11:38;;;;;;;2.63;2.42;;;5.80;59.30;;;4.12;64.77;100567.28;8386016;28;21442;-84
2022/01/08 03:16:00;;;;;;;3.10;2.80;;;5.90;59.40;;;4.17;64.79;100576.56;8392591;28;20038;-84
2022/01/08 03:20:21;;;;;;;3.00;2.70;;;5.80;59.40;;;4.20;64.50;100586.81;8384195;28;20141;-84
2022/01/08 03:24:43;;;;;;;2.95;2.65;;;6.00;59.40;;;4.21;64.67;100580.75;8395416;28;20107;-84
2022/01/08 03:29:05;;;;;;;2.95;2.65;;;6.00;59.40;;;4.08;64.74;100565.66;8376947;28;20593;-84
2022/01/08 03:33:27;;;;;;;3.17;2.88;;;5.90;59.40;;;4.29;64.67;100596.00;8389139;28;20058;-84
2022/01/08 03:37:49;;;;;;;3.30;3.00;;;6.00;59.70;;;4.28;64.66;100588.31;8372581;28;20036;-84
2022/01/08 03:42:11;;;;;;;3.22;2.88;;;6.00;59.40;;;4.26;64.74;100578.00;8393143;28;20114;-84
2022/01/08 03:46:35;;;;;;;3.17;2.88;;;6.00;59.40;;;4.22;64.89;100561.78;8374529;28;20050;-84
2022/01/08 03:50:58;;;;;;;2.80;2.55;;;6.00;59.30;;;4.34;64.76;100580.38;8382469;28;20111;-84
2022/01/08 03:55:19;;;;;;;2.95;2.75;;;6.00;59.30;;;4.26;65.11;100572.84;8385654;28;20036;-85
2022/01/08 03:59:41;;;;;;;3.03;2.72;;;6.10;59.30;;;4.27;64.95;100576.31;8387046;28;20039;-83
2022/01/08 04:04:03;;;;;;;2.92;2.63;;;6.00;59.30;;;4.23;64.59;100570.38;8365003;28;20464;-84
2022/01/08 04:08:25;;;;;;;3.03;2.72;;;6.00;59.30;;;4.35;64.71;100593.25;8382690;28;20123;-84
2022/01/08 04:12:54;;;;;;;3.33;3.03;;;6.10;59.30;;;4.29;64.72;100580.50;8396759;28;20036;-84
2022/01/08 04:17:16;;;;;;;3.65;3.30;;;6.10;59.30;;;4.23;64.63;100565.19;8386804;28;20040;-84
2022/01/08 04:26:21;;;;;;;2.85;2.58;;;5.90;59.20;;;4.05;64.79;100548.53;8401405;28;20119;-83
2022/01/08 04:30:44;;;;;;;3.35;2.75;;;6.00;59.20;;;4.31;64.74;100589.06;8395286;28;20040;-83
2022/01/08 04:35:06;;;;;;;3.15;2.90;;;6.00;59.20;;;4.25;64.54;100586.66;8380346;28;20447;-84
2022/01/08 04:39:28;;;;;;;2.95;2.75;;;6.00;59.20;;;4.29;64.81;100585.66;8375823;28;20043;-84
2022/01/08 04:43:50;;;;;;;2.95;2.58;;;6.00;59.20;;;4.28;64.47;100581.41;8383168;28;20465;-84
2022/01/08 04:48:12;;;;;;;2.90;2.67;;;6.00;59.20;;;4.35;64.70;100584.66;8391313;28;20592;-83
2022/01/08 04:52:34;;;;;;;2.72;2.53;;;5.90;59.10;;;4.24;64.90;100572.06;8409763;28;20123;-84
2022/01/08 04:56:56;;;;;;;3.25;2.90;;;6.00;59.10;;;4.29;64.69;100590.84;8401736;28;20036;-83
2022/01/08 05:01:18;;;;;;;3.17;2.88;;;6.00;59.10;;;4.13;64.84;100574.13;8384602;28;20032;-84
2022/01/08 05:05:40;;;;;;;3.25;2.95;;;6.00;59.10;;;4.27;64.49;100603.00;8376182;28;20029;-84
2022/01/08 05:10:04;;;;;;;3.00;2.78;;;6.00;59.10;;;4.30;64.63;100613.22;8384731;28;20028;-84
2022/01/08 05:14:27;;;;;;;3.53;2.90;;;6.00;59.10;;;4.18;64.53;100592.91;8380205;28;20119;-84
2022/01/08 05:18:54;;;;;;;3.35;3.03;;;6.00;59.10;;;4.15;64.50;100599.03;8385873;28;20040;-84
2022/01/08 05:23:15;;;;;;;3.42;3.03;;;6.00;59.10;;;4.20;64.74;100615.25;8395397;28;20119;-84
2022/01/08 05:27:37;;;;;;;3.28;2.97;;;6.00;59.20;;;4.28;64.73;100617.59;8402689;28;20111;-83
2022/01/08 05:31:59;;;;;;;2.80;2.58;;;5.90;59.10;;;4.19;64.76;100605.81;8396386;28;20135;-83
2022/01/08 05:36:21;;;;;;;3.83;3.38;;;6.00;59.20;;;4.19;64.60;100610.97;8366605;28;20123;-83
2022/01/08 05:40:42;;;;;;;3.92;3.17;;;5.90;59.10;;;4.10;64.64;100595.72;8391956;28;20127;-84
2022/01/08 05:45:05;;;;;;;2.58;2.38;;;5.90;59.10;;;4.27;64.53;100621.06;8394527;28;20129;-83
2022/01/08 05:49:27;;;;;;;2.92;2.70;;;6.00;59.20;;;4.19;64.55;100605.81;8389377;28;20484;-83
2022/01/08 05:53:48;;;;;;;3.15;2.85;;;6.00;59.20;;;4.26;64.60;100615.94;8402331;28;20448;-83
2022/01/08 05:58:10;;;;;;;4.43;3.05;;;6.00;59.20;;;4.23;64.70;100614.28;8401614;28;20032;-84
2022/01/08 06:02:32;;;;;;;3.60;3.22;;;5.90;59.10;;;4.27;64.66;100634.00;8390244;28;20036;-83
2022/01/08 06:06:53;;;;;;;3.33;3.03;;;5.90;59.20;;;4.12;64.47;100608.63;8386274;28;20123;-83
2022/01/08 06:11:15;;;;;;;3.25;2.97;;;5.90;59.20;;;4.21;64.48;100619.53;8376077;28;20666;-84
2022/01/08 06:15:37;;;;;;;3.25;2.95;;;6.00;59.20;;;4.29;64.75;100624.44;8372044;28;20123;-83
2022/01/08 06:19:59;;;;;;;3.10;2.58;;;6.00;59.20;;;4.29;64.78;100629.59;8400967;28;20127;-83
2022/01/08 06:24:21;;;;;;;2.60;2.40;;;6.00;59.20;;;4.31;64.97;100622.66;8414974;28;20110;-84
2022/01/08 06:28:43;;;;;;;3.08;2.50;;;6.00;59.10;;;4.18;64.56;100609.25;8396037;28;20107;-83
2022/01/08 06:33:05;;;;;;;2.53;2.33;;;6.00;59.10;;;4.29;64.56;100633.94;8355990;28;20587;-84
2022/01/08 06:37:27;;;;;;;4.90;2.67;;;6.00;59.00;;;4.21;64.42;100631.59;8351404;28;20041;-84
2022/01/08 06:41:49;;;;;;;3.78;3.35;;;6.00;59.00;;;4.26;64.68;100644.38;8362124;28;20112;-84
2022/01/08 06:46:11;;;;;;;3.00;2.63;;;6.00;59.00;;;4.11;64.55;100625.03;8362178;28;20037;-84
2022/01/08 06:50:33;;;;;;;3.25;2.53;;;5.90;59.00;;;4.09;65.05;100627.63;8369745;28;20431;-84
2022/01/08 06:54:54;;;;;;;3.45;2.88;;;6.00;59.00;;;4.23;64.62;100647.91;8368298;28;20033;-84
2022/01/08 06:59:16;;;;;;;3.25;2.95;;;5.90;59.00;;;4.22;64.59;100659.13;8397294;28;20511;-89
2022/01/08 07:03:38;;;;;;;3.00;2.72;;;5.90;59.00;;;3.73;64.82;100580.50;8377742;28;20119;-82
2022/01/08 07:07:59;;;;;;;2.97;2.75;;;5.90;59.00;;;4.06;64.64;100632.91;8365266;28;20029;-83
2022/01/08 07:12:21;;;;;;;3.08;2.78;;;5.90;59.00;;;4.06;64.65;100639.81;8358822;28;20054;-84
2022/01/08 07:16:44;;;;;;;3.58;2.72;;;5.90;59.10;;;4.23;64.76;100658.22;8398447;28;20104;-83
2022/01/08 07:21:05;;;;;;;3.17;2.88;;;5.90;59.10;;;4.11;64.55;100643.13;8375406;28;20120;-83
2022/01/08 07:25:27;;;;;;;3.38;2.60;;;5.90;59.10;;;4.21;64.52;100660.88;8385406;28;20477;-83
2022/01/08 07:29:49;;;;;;;3.00;2.75;;;5.90;59.10;;;4.24;64.74;100664.25;8396205;28;20111;-83
2022/01/08 07:34:10;;;;;;;3.95;3.13;;;6.20;59.20;;;4.25;65.00;100673.72;8385476;28;20139;-83
2022/01/08 07:38:32;;;;;;;3.67;3.05;;;5.90;59.10;;;4.25;64.69;100676.28;8390225;28;20040;-84
2022/01/08 07:42:54;;;;;;;2.92;2.70;;;6.00;59.20;;;4.24;65.19;100675.47;8406145;28;20454;-84
2022/01/08 07:47:15;;;;;;;2.95;2.72;;;5.90;59.10;;;4.17;64.68;100668.75;8377032;28;20037;-84
2022/01/08 07:51:37;;;;;;;2.95;2.70;;;5.80;59.10;;;4.16;64.90;100667.09;8388146;28;20107;-84
2022/01/08 07:55:59;;;;;;;2.75;2.50;;;6.00;59.10;;;4.19;64.83;100672.16;8403085;28;20507;-84
2022/01/08 08:00:20;;;;;;;2.83;2.63;;;6.00;59.10;;;4.18;64.84;100678.19;8383744;28;20059;-83
2022/01/08 08:04:42;;;;;;;3.40;3.10;;;6.00;59.10;;;4.19;64.50;100662.66;8412253;28;20115;-84
2022/01/08 08:09:04;;;;;;;4.35;3.10;;;6.10;59.10;;;4.07;64.53;100649.25;8390101;28;20127;-84
2022/01/08 08:13:26;;;;;;;3.08;2.78;;;6.00;59.10;;;4.27;64.39;100690.88;8398809;28;20123;-84
2022/01/08 08:17:47;;;;;;;3.28;2.97;;;6.00;59.10;;;4.22;64.66;100679.81;8382856;28;20469;-85
2022/01/08 08:22:10;;;;;;;3.38;3.08;;;6.00;59.10;;;4.23;64.86;100673.75;8406556;28;20126;-81
2022/01/08 08:26:38;;;;;;;4.10;3.50;;;6.00;59.10;;;4.16;65.01;100669.66;8390022;28;20113;-81
2022/01/08 08:31:00;;;;;;;3.20;2.90;;;5.90;59.00;;;4.27;64.90;100696.03;8385267;28;20123;-81
2022/01/08 08:35:22;;;;;;;3.85;3.15;;;6.00;59.10;;;4.17;64.72;100672.19;8382749;28;20131;-82
2022/01/08 08:39:43;;;;;;;3.83;3.10;;;6.00;59.10;;;4.19;64.71;100677.31;8391870;28;20032;-83
2022/01/08 08:44:05;;;;;;;4.10;2.85;;;5.90;59.40;;;4.24;64.72;100670.28;8396274;28;20111;-81
2022/01/08 08:48:27;;;;;;;3.25;2.90;;;6.00;59.00;;;4.24;64.69;100667.69;8392647;28;20032;-87
2022/01/08 08:52:48;;;;;;;3.58;3.28;;;6.00;59.00;;;4.27;64.76;100667.59;8371823;28;20055;-84
2022/01/08 08:57:10;;;;;;;3.47;3.15;;;6.00;59.00;;;4.19;65.06;100652.31;8390404;28;20119;-83
2022/01/08 09:01:32;;;;;;;2.80;2.60;;;6.00;59.00;;;4.10;64.90;100638.81;8390276;28;20144;-83
2022/01/08 09:05:54;;;;;;;2.90;2.63;;;5.90;59.00;;;4.28;64.54;100658.09;8398760;28;20111;-83
2022/01/08 09:10:18;;;;;;;2.53;2.33;;;6.00;59.00;;;4.07;64.54;100620.81;8389937;28;20047;-82
2022/01/08 09:14:42;;;;;;;3.25;2.95;;;6.00;59.00;;;4.28;64.75;100661.53;8398674;28;20569;-82
2022/01/08 09:19:04;;;;;;;3.72;3.25;;;5.90;59.00;;;4.19;64.40;100648.91;8406690;28;20739;-82
2022/01/08 09:23:26;;;;;;;4.90;2.72;;;6.00;59.10;;;4.25;64.64;100653.03;8380493;28;20608;-82
2022/01/08 09:27:48;;;;;;;2.65;2.45;;;6.00;59.10;;;4.20;64.78;100645.41;8393889;28;20123;-82
2022/01/08 09:32:10;;;;;;;3.63;3.30;;;6.00;59.40;;;4.27;64.84;100657.25;8390390;28;20565;-82
2022/01/08 09:36:32;;;;;;;3.25;2.63;;;6.00;59.10;;;4.20;64.69;100648.84;8403513;28;20123;-82
2022/01/08 09:40:54;;;;;;;3.17;2.88;;;6.00;59.10;;;4.24;64.82;100654.78;8372398;28;20029;-82
2022/01/08 09:45:17;;;;;;;3.58;2.72;;;6.00;59.10;;;4.20;64.65;100642.81;8357908;28;20039;-82
2022/01/08 09:49:40;;;;;;;4.47;3.53;;;6.00;59.10;;;4.29;64.86;100652.03;8390828;28;20117;-82
2022/01/08 09:54:03;;;;;;;3.10;2.80;;;6.00;59.10;;;4.20;64.93;100643.66;8387655;28;20543;-82
2022/01/08 09:58:24;;;;;;;3.58;2.95;;;5.90;59.10;;;4.33;64.55;100661.41;8381851;28;20575;-82
2022/01/08 10:02:46;;;;;;;2.85;2.58;;;6.00;59.10;;;4.21;65.06;100641.91;8393354;28;20107;-81
2022/01/08 10:07:23;;;;;;;2.95;2.67;;;6.00;59.10;;;4.28;64.63;100656.38;8389802;28;20115;-83
2022/01/08 10:11:49;;;;;;;2.92;2.67;;;6.00;59.10;;;4.27;64.87;100651.25;8377213;28;20127;-83
2022/01/08 10:20:55;;;;;;;2.95;2.53;;;6.10;59.20;;;4.20;64.91;100629.91;8406251;28;19924;-82
2022/01/08 10:25:17;;;;;;;2.85;2.60;;;6.10;59.10;;;4.28;64.67;100640.84;8364063;28;20127;-82
2022/01/08 10:29:38;;;;;;;2.97;2.67;;;6.10;59.20;;;4.32;64.94;100636.41;8380122;28;20119;-83
2022/01/08 10:34:11;;;;;;;2.50;2.30;;;6.10;59.20;;;4.20;65.11;100612.66;8398340;28;20118;-82
2022/01/08 10:38:33;;;;;;;3.10;2.65;;;6.10;59.10;;;4.33;64.57;100643.31;8381574;28;20392;-83
2022/01/08 10:42:54;;;;;;;3.13;2.72;;;6.10;59.10;;;4.44;64.99;100651.56;8390404;28;20596;-82
2022/01/08 10:47:21;;;;;;;3.70;2.78;;;6.10;59.10;;;4.30;64.99;100622.72;8390168;28;20115;-83
2022/01/08 10:51:43;;;;;;;3.20;2.65;;;6.10;59.00;;;4.39;64.63;100618.09;8401876;28;20183;-81
2022/01/08 10:56:25;;;;;;;3.20;2.90;;;6.20;59.10;;;4.41;64.66;100625.81;8388766;28;20109;-81
2022/01/08 11:00:47;;;;;;;3.40;2.78;;;6.20;59.10;;;4.44;64.97;100628.31;8385386;28;20038;-82
2022/01/08 11:05:10;;;;;;;3.33;3.03;;;6.20;59.10;;;4.50;64.48;100640.19;8395332;28;20116;-80
2022/01/08 11:09:33;;;;;;;3.22;2.85;;;6.20;59.00;;;4.47;64.82;100637.69;8377380;28;20135;-83
2022/01/08 11:13:54;;;;;;;3.33;3.03;;;6.10;59.00;;;4.50;64.74;100643.63;8399481;28;20115;-82
2022/01/08 11:18:19;;;;;;;3.75;3.35;;;6.20;59.00;;;4.37;64.74;100619.88;8375156;28;20036;-80
2022/01/08 11:22:52;;;;;;;3.17;2.88;;;6.10;59.30;;;4.25;64.93;100599.59;8388522;28;20036;-82
2022/01/08 11:27:19;;;;;;;3.70;3.33;;;6.20;59.00;;;4.51;64.78;100644.44;8372418;28;20123;-81
2022/01/08 11:31:42;;;;;;;4.90;3.97;;;6.20;59.00;;;4.39;64.96;100617.25;8396424;28;20123;-82
2022/01/08 11:36:04;;;;;;;3.63;3.33;;;6.20;59.00;;;4.39;64.91;100620.69;8393908;28;20115;-82
2022/01/08 11:40:26;;;;;;;3.50;3.20;;;6.40;59.10;;;4.48;65.07;100627.28;8408729;28;20038;-81
2022/01/08 11:44:52;;;;;;;4.63;3.60;;;6.20;59.00;;;4.46;65.00;100620.50;8402612;28;20561;-90
2022/01/08 11:49:15;;;;;;;;;;;6.20;59.00;;;4.42;64.66;100615.41;8399141;28;20177;-85
2022/01/08 11:54:06;;;;;;;3.28;2.97;;;6.10;59.00;;;4.43;64.71;100621.44;8399953;28;20554;-83
2022/01/08 11:58:34;;;;;;;4.35;3.30;;;6.30;59.00;;;4.49;65.10;100620.41;8395992;28;20040;-85
2022/01/08 12:03:16;;;;;;;4.00;3.15;;;6.30;59.00;;;4.48;64.79;100608.34;8383754;28;20116;-82
2022/01/08 12:07:46;;;;;;;4.05;3.65;;;6.30;59.00;;;4.43;64.97;100590.44;8384688;28;20111;-89
2022/01/08 12:12:08;;;;;;;3.60;3.10;;;6.40;59.00;;;4.54;64.89;100595.25;8408997;28;20123;-83
2022/01/08 12:16:36;;;;;;;3.70;3.38;;;6.30;59.00;;;4.74;65.01;100623.88;8357429;28;20127;-81
2022/01/08 12:20:58;;;;;;;3.28;2.97;;;6.40;59.00;;;4.69;64.88;100615.41;8388713;28;20480;-87
2022/01/08 12:25:40;;;;;;;3.65;3.33;;;6.50;59.00;;;4.57;64.72;100589.97;8383235;28;20111;-81
2022/01/08 12:30:17;;;;;;;5.97;3.88;;;6.40;58.90;;;4.84;64.61;100633.03;8398687;28;20602;-86
2022/01/08 12:34:43;;;;;;;4.70;3.45;;;6.50;58.80;;;4.86;64.70;100623.50;8409443;28;20123;-87
2022/01/08 12:39:05;;;;;;;4.05;3.00;;;6.50;58.80;;;4.80;64.99;100608.16;8389400;28;20043;-88
2022/01/08 12:43:36;;;;;;;3.67;3.17;;;6.60;58.80;;;4.84;64.91;100607.16;8380048;28;20124;-85
2022/01/08 12:48:03;;;;;;;3.15;2.80;;;6.60;58.70;;;4.88;65.00;100605.31;8399479;28;20120;-87
2022/01/08 12:52:25;;;;;;;3.45;3.03;;;6.60;58.70;;;4.75;64.63;100576.44;8379866;28;20036;-86
2022/01/08 12:56:49;;;;;;;8.40;3.38;;;6.60;58.60;;;4.79;64.82;100583.19;8406464;28;20033;-83
2022/01/08 13:01:18;;;;;;;3.55;2.83;;;6.60;58.50;;;4.79;64.83;100583.19;8383650;28;20044;-87
2022/01/08 13:05:40;;;;;;;3.47;3.17;;;6.60;58.50;;;4.95;64.95;100600.78;8394325;28;20042;-89
2022/01/08 13:10:02;;;;;;;3.25;2.92;;;6.70;58.50;;;4.83;64.68;100568.41;8415702;28;20042;-89
2022/01/08 13:14:29;;;;;;;3.95;3.00;;;6.70;58.60;;;4.99;64.88;100586.84;8380641;28;20404;-88
2022/01/08 13:18:56;;;;;;;3.90;3.50;;;6.70;58.60;;;4.96;64.50;100571.41;8375344;28;20046;-88
2022/01/08 13:23:18;;;;;;;3.88;3.22;;;6.80;58.60;;;4.98;64.54;100564.47;8375231;28;20046;-89
2022/01/08 13:27:40;;;;;;;4.18;2.75;;;6.80;58.60;;;5.13;64.97;100582.06;8374848;28;20036;-89
2022/01/08 13:32:07;;;;;;;4.85;2.88;;;6.80;58.50;;;5.15;64.69;100584.56;8366558;28;20048;-88
2022/01/08 13:36:28;;;;;;;3.67;3.17;;;7.10;58.60;;;5.16;64.73;100579.34;8386212;28;20046;-89
2022/01/08 13:40:50;;;;;;;3.95;3.55;;;6.80;58.50;;;5.03;64.84;100557.38;8388043;28;20040;-88
2022/01/08 13:45:22;;;;;;;5.72;3.60;;;6.90;58.40;;;5.05;64.85;100547.78;8373870;28;20047;-89
2022/01/08 13:49:48;;;;;;;4.18;3.78;;;6.90;58.30;;;5.21;64.79;100572.28;8395515;28;20040;-88
2022/01/08 13:54:10;;;;;;;4.28;3.60;;;6.90;58.30;;;5.18;64.75;100553.41;8395597;28;20048;-88
2022/01/08 13:58:31;;;;;;;4.00;3.65;;;7.00;58.20;;;5.22;64.68;100557.56;8382761;28;20044;-89
2022/01/08 14:02:55;;;;;;;4.10;3.47;;;7.00;58.30;;;5.25;64.62;100567.81;8409683;28;20043;-87
2022/01/08 14:07:17;;;;;;;3.85;3.42;;;6.90;58.20;;;5.25;64.68;100555.72;8349724;28;20598;-88
2022/01/08 14:11:39;;;;;;;3.80;3.42;;;7.00;58.30;;;5.27;64.55;100555.66;8381962;28;20440;-89
2022/01/08 14:16:05;;;;;;;5.00;3.90;;;7.30;58.40;;;5.23;64.61;100544.56;8378711;28;20050;-89
2022/01/08 14:20:26;;;;;;;7.43;5.55;;;7.00;58.20;;;5.24;64.12;100535.91;8383428;28;20033;-89
2022/01/08 14:24:51;;;;;;;6.95;4.68;;;7.00;58.30;;;5.19;64.71;100527.47;8372045;28;20032;-89
2022/01/08 14:29:13;;;;;;;5.17;3.90;;;6.90;58.20;;;5.22;64.44;100524.75;8377878;28;20513;-89
2022/01/08 14:33:35;;;;;;;6.90;3.63;;;7.00;58.20;;;5.13;64.42;100506.13;8377724;28;20280;-88
2022/01/08 14:38:01;;;;;;;4.82;3.70;;;7.00;58.20;;;5.22;64.13;100516.16;8359929;28;20428;-89
2022/01/08 14:42:28;;;;;;;3.85;3.15;;;7.00;58.20;;;5.29;64.36;100527.97;8377349;28;20036;-89
2022/01/08 14:46:50;;;;;;;4.82;4.18;;;7.00;58.20;;;5.31;64.40;100532.19;8382165;28;20035;-90
2022/01/08 14:51:17;;;;;;;4.93;3.85;;;7.00;58.20;;;5.25;64.16;100516.88;8375440;28;20621;-88
2022/01/08 14:55:39;;;;;;;3.58;3.28;;;6.90;58.10;;;5.28;64.39;100526.28;8379267;28;20588;-88
2022/01/08 15:00:01;;;;;;;4.13;3.20;;;7.00;58.20;;;5.21;64.09;100502.38;8364849;28;20063;-88
2022/01/08 15:04:22;;;;;;;3.95;3.13;;;7.00;58.20;;;5.29;64.76;100515.88;8366908;28;20062;-83
2022/01/08 15:08:44;;;;;;;4.47;3.83;;;7.00;58.20;;;5.24;64.02;100510.03;8376224;28;20103;-85
2022/01/08 15:13:06;;;;;;;4.30;3.53;;;6.90;58.20;;;5.32;64.40;100528.72;8368794;28;20784;-88
2022/01/08 15:17:27;;;;;;;4.95;3.95;;;7.00;58.20;;;5.23;64.24;100507.47;8378461;28;20033;-88
2022/01/08 15:21:49;;;;;;;5.70;4.35;;;7.00;58.20;;;5.27;64.12;100522.84;8405036;28;20032;-90
2022/01/08 15:26:11;;;;;;;4.90;3.65;;;7.00;58.10;;;5.19;64.01;100513.69;8392801;28;20036;-89
2022/01/08 15:30:34;;;;;;;6.25;4.05;;;6.90;58.10;;;5.07;64.30;100502.00;8380796;28;20040;-88
2022/01/08 15:34:55;;;;;;;4.43;3.78;;;7.00;58.20;;;5.16;64.13;100517.22;8389530;28;20036;-88
2022/01/08 15:39:18;;;;;;;7.18;4.47;;;7.00;58.20;;;5.17;64.25;100512.91;8385247;28;20458;-88
2022/01/08 15:43:39;;;;;;;4.80;4.30;;;7.00;58.20;;;5.28;64.36;100532.31;8367374;28;20580;-90
2022/01/08 15:48:04;;;;;;;5.70;4.22;;;6.80;58.10;;;5.02;64.13;100483.22;8352274;28;20032;-90
2022/01/08 15:52:26;;;;;;;8.73;4.07;;;7.00;58.20;;;5.29;64.61;100518.47;8377276;28;20036;-90
2022/01/08 15:56:47;;;;;;;6.43;4.20;;;7.00;58.20;;;5.19;64.43;100500.75;8386929;28;20032;-90
2022/01/08 16:01:09;;;;;;;6.68;3.53;;;7.00;58.20;;;5.20;64.43;100503.25;8385132;28;20036;-90
2022/01/08 16:05:33;;;;;;;5.50;3.30;;;7.00;58.10;;;5.19;64.42;100499.00;8369718;28;20083;-90
2022/01/08 16:09:55;;;;;;;3.20;2.90;;;7.00;58.10;;;5.08;63.93;100470.06;8377350;28;20040;-90
2022/01/08 16:14:16;;;;;;;3.35;3.05;;;7.00;58.10;;;5.20;64.42;100490.31;8366826;28;20043;-90
2022/01/08 16:18:38;;;;;;;6.22;3.70;;;6.90;58.10;;;5.29;64.50;100507.25;8392281;28;20447;-90
2022/01/08 16:23:00;;;;;;;5.47;3.58;;;7.00;58.20;;;5.24;64.21;100478.97;8377569;28;20045;-91
2022/01/08 16:27:22;;;;;;;4.82;3.70;;;7.00;58.20;;;5.21;64.38;100473.91;8384869;28;20036;-91
2022/01/08 16:31:44;;;;;;;4.50;3.60;;;7.00;58.20;;;5.17;63.95;100463.72;8389737;28;20104;-91
2022/01/08 16:36:05;;;;;;;4.18;3.78;;;7.00;58.20;;;5.25;64.30;100477.22;8396477;28;20024;-91
2022/01/08 16:40:27;;;;;;;5.60;3.92;;;7.00;58.10;;;5.33;64.10;100488.13;8366971;28;20051;-92
2022/01/08 16:44:49;;;;;;;4.13;3.17;;;7.00;58.20;;;5.18;64.24;100458.47;8383673;28;20028;-92
2022/01/08 16:49:11;;;;;;;4.93;3.95;;;7.00;58.20;;;5.29;64.17;100471.00;8383699;28;20438;-92
2022/01/08 16:53:38;;;;;;;3.65;3.35;;;7.00;58.20;;;5.33;64.24;100475.19;8361064;28;20032;-91
2022/01/08 16:57:59;;;;;;;7.18;4.43;;;7.00;58.20;;;5.11;63.75;100423.38;8396249;28;20399;-92
2022/01/08 17:02:21;;;;;;;7.40;5.28;;;7.00;58.10;;;5.35;63.72;100462.16;8389699;28;20041;-91
2022/01/08 17:06:43;;;;;;;6.43;5.25;;;7.00;58.10;;;5.33;63.99;100457.06;8384425;28;20043;-91
2022/01/08 17:11:05;;;;;;;5.65;4.80;;;7.20;58.20;;;5.30;64.34;100436.47;8389592;28;20115;-91
2022/01/08 17:15:27;;;;;;;6.97;5.40;;;7.00;58.20;;;5.24;63.96;100426.34;8382631;28;20046;-87
2022/01/08 17:19:49;;;;;;;6.60;5.18;;;6.90;58.10;;;5.24;63.96;100426.34;8379017;28;20039;-91
2022/01/08 17:24:11;;;;;;;4.90;4.38;;;7.00;58.20;;;5.19;64.14;100415.31;8393826;28;20042;-91
2022/01/08 17:28:33;;;;;;;6.47;4.60;;;7.00;58.20;;;5.29;64.12;100425.28;8401688;28;20106;-92
2022/01/08 17:32:54;;;;;;;6.05;4.10;;;7.00;58.20;;;5.20;63.97;100397.13;8378335;28;20040;-91
2022/01/08 17:37:17;;;;;;;5.93;4.43;;;7.00;58.20;;;5.25;63.82;100402.97;8404160;28;20050;-90
2022/01/08 17:41:39;;;;;;;6.40;4.10;;;7.00;58.20;;;5.25;64.18;100390.03;8394882;28;20051;-91
2022/01/08 17:46:02;;;;;;;5.60;4.63;;;6.90;58.20;;;5.22;64.42;100386.72;8384319;28;20107;-91
2022/01/08 17:50:24;;;;;;;6.43;5.28;;;6.80;58.10;;;5.16;63.75;100364.53;8381484;28;20611;-92
2022/01/08 17:54:47;;;;;;;6.53;5.03;;;6.80;58.10;;;5.15;63.92;100354.22;8388594;28;20043;-91
2022/01/08 17:59:09;;;;;;;10.98;6.43;;;6.90;58.20;;;5.06;64.22;100335.56;8390298;28;20056;-92
2022/01/08 18:03:31;;;;;;;10.52;5.93;;;6.70;58.10;;;5.10;64.13;100350.06;8369459;28;20042;-91
2022/01/08 18:07:53;;;;;;;8.70;5.25;;;6.90;58.20;;;5.20;64.04;100353.13;8378978;28;20039;-91
2022/01/08 18:12:16;;;;;;;10.50;5.70;;;7.10;58.30;;;5.19;64.29;100346.28;8373446;28;20048;-84
2022/01/08 18:16:37;;;;;;;12.10;7.50;;;6.90;58.20;;;5.07;63.83;100326.88;8382510;28;20041;-90
2022/01/08 18:20:59;;;;;;;7.03;4.88;;;6.80;58.20;;;5.15;64.33;100333.50;8401418;28;20044;-89
2022/01/08 18:25:22;;;;;;;5.60;4.75;;;6.70;58.20;;;5.17;64.07;100323.94;8378921;28;20055;-91
2022/01/08 18:29:43;;;;;;;6.53;4.63;;;6.80;58.30;;;5.14;64.45;100309.38;8387098;28;20531;-91
2022/01/08 18:34:05;;;;;;;7.32;5.10;;;6.80;58.20;;;5.15;64.48;100303.28;8391084;28;20198;-91
2022/01/08 18:38:27;;;;;;;5.57;4.93;;;6.80;58.20;;;4.95;64.08;100272.19;8373243;28;20033;-91
2022/01/08 18:42:51;;;;;;;7.32;5.95;;;6.80;58.20;;;5.02;64.05;100281.38;8384949;28;20046;-91
2022/01/08 18:47:12;;;;;;;7.63;5.72;;;6.70;58.10;;;4.99;64.24;100263.41;8380199;28;20047;-91
2022/01/08 18:51:34;;;;;;;6.28;4.70;;;6.80;58.10;;;5.00;63.91;100272.88;8371109;28;20045;-91
2022/01/08 18:55:59;;;;;;;5.30;4.40;;;6.70;58.10;;;5.00;64.33;100272.88;8380156;28;20052;-90
2022/01/08 19:00:21;;;;;;;6.43;4.65;;;6.60;58.10;;;4.85;63.77;100246.66;8372920;28;20036;-91
2022/01/08 19:04:43;;;;;;;7.18;4.63;;;6.40;58.00;;;4.84;63.78;100247.59;8365692;28;20037;-91